sensor_id;sensor_type;location;lat;lon;timestamp;P1;durP1;ratioP1;P2;durP2;ratioP2
19727;SDS011;10015;52.530;13.390;2023-04-10T00:02:17;40.63;;;20.27;;
19727;SDS011;10015;52.530;13.390;2023-04-10T00:04:43;39.20;;;20.07;;
19727;SDS011;10015;52.530;13.390;2023-04-10T00:07:10;46.23;;;21.93;;
19727;SDS011;10015;52.530;13.390;2023-04-10T00:09:36;49.13;;;22.93;;
19727;SDS011;10015;52.530;13.390;2023-04-10T00:12:02;37.67;;;19.03;;
19727;SDS011;10015;52.530;13.390;2023-04-10T00:14:28;32.23;;;16.27;;
19727;SDS011;10015;52.530;13.390;2023-04-10T00:16:54;30.20;;;15.10;;
19727;SDS011;10015;52.530;13.390;2023-04-10T00:19:20;29.50;;;14.23;;
19727;SDS011;10015;52.530;13.390;2023-04-10T00:21:46;26.60;;;13.27;;
19727;SDS011;10015;52.530;13.390;2023-04-10T00:24:12;23.63;;;13.10;;
19727;SDS011;10015;52.530;13.390;2023-04-10T00:26:38;26.77;;;13.17;;
19727;SDS011;10015;52.530;13.390;2023-04-10T00:29:04;30.87;;;14.43;;
19727;SDS011;10015;52.530;13.390;2023-04-10T00:31:30;28.43;;;13.93;;
19727;SDS011;10015;52.530;13.390;2023-04-10T00:33:56;25.90;;;14.97;;
19727;SDS011;10015;52.530;13.390;2023-04-10T00:36:22;28.83;;;14.67;;
19727;SDS011;10015;52.530;13.390;2023-04-10T00:38:48;24.97;;;13.13;;
19727;SDS011;10015;52.530;13.390;2023-04-10T00:41:14;28.47;;;14.30;;
19727;SDS011;10015;52.530;13.390;2023-04-10T00:43:41;28.30;;;13.40;;
19727;SDS011;10015;52.530;13.390;2023-04-10T00:46:08;29.63;;;13.77;;
19727;SDS011;10015;52.530;13.390;2023-04-10T00:48:34;26.60;;;13.20;;
19727;SDS011;10015;52.530;13.390;2023-04-10T00:51:00;26.03;;;13.53;;
19727;SDS011;10015;52.530;13.390;2023-04-10T00:53:27;24.07;;;12.87;;
19727;SDS011;10015;52.530;13.390;2023-04-10T00:55:53;24.80;;;12.00;;
19727;SDS011;10015;52.530;13.390;2023-04-10T00:58:23;26.77;;;12.50;;
19727;SDS011;10015;52.530;13.390;2023-04-10T01:00:50;25.90;;;11.70;;
19727;SDS011;10015;52.530;13.390;2023-04-10T01:03:16;26.40;;;11.73;;
19727;SDS011;10015;52.530;13.390;2023-04-10T01:11:38;24.03;;;12.50;;
19727;SDS011;10015;52.530;13.390;2023-04-10T01:14:32;27.47;;;12.87;;
19727;SDS011;10015;52.530;13.390;2023-04-10T01:22:45;24.77;;;12.53;;
19727;SDS011;10015;52.530;13.390;2023-04-10T01:25:29;25.97;;;11.97;;
19727;SDS011;10015;52.530;13.390;2023-04-10T01:30:47;22.00;;;11.83;;
19727;SDS011;10015;52.530;13.390;2023-04-10T01:33:17;26.63;;;12.87;;
19727;SDS011;10015;52.530;13.390;2023-04-10T01:35:51;23.47;;;12.27;;
19727;SDS011;10015;52.530;13.390;2023-04-10T01:38:19;24.60;;;13.03;;
19727;SDS011;10015;52.530;13.390;2023-04-10T01:40:49;24.80;;;12.23;;
19727;SDS011;10015;52.530;13.390;2023-04-10T01:43:25;22.10;;;12.20;;
19727;SDS011;10015;52.530;13.390;2023-04-10T01:45:53;26.30;;;12.50;;
19727;SDS011;10015;52.530;13.390;2023-04-10T01:48:21;23.03;;;11.93;;
19727;SDS011;10015;52.530;13.390;2023-04-10T01:50:47;23.67;;;12.67;;
19727;SDS011;10015;52.530;13.390;2023-04-10T01:53:14;24.77;;;12.23;;
19727;SDS011;10015;52.530;13.390;2023-04-10T01:55:41;23.87;;;11.33;;
19727;SDS011;10015;52.530;13.390;2023-04-10T01:58:10;26.30;;;12.67;;
19727;SDS011;10015;52.530;13.390;2023-04-10T02:00:40;21.13;;;11.97;;
19727;SDS011;10015;52.530;13.390;2023-04-10T02:03:08;23.67;;;12.03;;
19727;SDS011;10015;52.530;13.390;2023-04-10T02:05:42;23.40;;;12.17;;
19727;SDS011;10015;52.530;13.390;2023-04-10T02:08:14;27.30;;;13.57;;
19727;SDS011;10015;52.530;13.390;2023-04-10T02:10:50;22.87;;;12.37;;
19727;SDS011;10015;52.530;13.390;2023-04-10T02:13:28;24.30;;;12.50;;
19727;SDS011;10015;52.530;13.390;2023-04-10T02:15:58;22.67;;;11.77;;
19727;SDS011;10015;52.530;13.390;2023-04-10T02:18:29;21.70;;;11.40;;
19727;SDS011;10015;52.530;13.390;2023-04-10T02:20:58;21.50;;;12.07;;
19727;SDS011;10015;52.530;13.390;2023-04-10T02:23:25;24.47;;;11.90;;
19727;SDS011;10015;52.530;13.390;2023-04-10T02:25:53;28.67;;;12.00;;
19727;SDS011;10015;52.530;13.390;2023-04-10T02:28:22;18.80;;;10.83;;
19727;SDS011;10015;52.530;13.390;2023-04-10T02:30:49;23.00;;;12.27;;
19727;SDS011;10015;52.530;13.390;2023-04-10T02:33:15;21.70;;;12.30;;
19727;SDS011;10015;52.530;13.390;2023-04-10T02:35:41;22.40;;;11.13;;
19727;SDS011;10015;52.530;13.390;2023-04-10T02:38:07;25.90;;;11.17;;
19727;SDS011;10015;52.530;13.390;2023-04-10T02:40:35;23.23;;;11.63;;
19727;SDS011;10015;52.530;13.390;2023-04-10T02:43:09;24.43;;;11.47;;
19727;SDS011;10015;52.530;13.390;2023-04-10T02:45:35;21.57;;;11.33;;
19727;SDS011;10015;52.530;13.390;2023-04-10T02:48:03;20.10;;;10.70;;
19727;SDS011;10015;52.530;13.390;2023-04-10T02:50:30;20.97;;;10.60;;
19727;SDS011;10015;52.530;13.390;2023-04-10T02:52:57;21.70;;;10.13;;
19727;SDS011;10015;52.530;13.390;2023-04-10T02:55:23;20.07;;;9.97;;
19727;SDS011;10015;52.530;13.390;2023-04-10T02:57:49;22.47;;;11.03;;
19727;SDS011;10015;52.530;13.390;2023-04-10T03:00:16;22.33;;;10.47;;
19727;SDS011;10015;52.530;13.390;2023-04-10T03:03:12;22.30;;;10.77;;
19727;SDS011;10015;52.530;13.390;2023-04-10T03:05:49;24.47;;;11.53;;
19727;SDS011;10015;52.530;13.390;2023-04-10T03:08:18;24.67;;;11.73;;
19727;SDS011;10015;52.530;13.390;2023-04-10T03:10:46;26.33;;;11.67;;
19727;SDS011;10015;52.530;13.390;2023-04-10T03:13:15;23.77;;;11.50;;
19727;SDS011;10015;52.530;13.390;2023-04-10T03:15:41;22.93;;;11.03;;
19727;SDS011;10015;52.530;13.390;2023-04-10T03:18:07;21.90;;;11.30;;
19727;SDS011;10015;52.530;13.390;2023-04-10T03:20:34;20.77;;;10.73;;
19727;SDS011;10015;52.530;13.390;2023-04-10T03:23:04;24.80;;;11.13;;
19727;SDS011;10015;52.530;13.390;2023-04-10T03:25:32;22.87;;;11.47;;
19727;SDS011;10015;52.530;13.390;2023-04-10T03:27:58;22.10;;;11.07;;
19727;SDS011;10015;52.530;13.390;2023-04-10T03:30:25;23.97;;;11.73;;
19727;SDS011;10015;52.530;13.390;2023-04-10T03:32:51;22.67;;;11.20;;
19727;SDS011;10015;52.530;13.390;2023-04-10T03:35:17;20.83;;;11.63;;
19727;SDS011;10015;52.530;13.390;2023-04-10T03:37:43;22.03;;;11.13;;
19727;SDS011;10015;52.530;13.390;2023-04-10T03:40:09;23.73;;;11.97;;
19727;SDS011;10015;52.530;13.390;2023-04-10T03:42:36;23.43;;;11.50;;
19727;SDS011;10015;52.530;13.390;2023-04-10T03:45:03;24.80;;;11.93;;
19727;SDS011;10015;52.530;13.390;2023-04-10T03:47:30;22.03;;;10.97;;
19727;SDS011;10015;52.530;13.390;2023-04-10T03:49:58;21.03;;;11.27;;
19727;SDS011;10015;52.530;13.390;2023-04-10T03:52:25;22.07;;;10.93;;
19727;SDS011;10015;52.530;13.390;2023-04-10T03:54:53;22.33;;;10.90;;
19727;SDS011;10015;52.530;13.390;2023-04-10T03:57:25;21.87;;;11.37;;
19727;SDS011;10015;52.530;13.390;2023-04-10T03:59:58;23.37;;;11.53;;
19727;SDS011;10015;52.530;13.390;2023-04-10T04:02:27;22.33;;;12.13;;
19727;SDS011;10015;52.530;13.390;2023-04-10T04:04:54;25.30;;;11.73;;
19727;SDS011;10015;52.530;13.390;2023-04-10T04:07:38;24.93;;;12.00;;
19727;SDS011;10015;52.530;13.390;2023-04-10T04:10:16;23.23;;;12.77;;
19727;SDS011;10015;52.530;13.390;2023-04-10T04:13:01;23.80;;;11.77;;
19727;SDS011;10015;52.530;13.390;2023-04-10T04:15:47;26.73;;;12.57;;
19727;SDS011;10015;52.530;13.390;2023-04-10T04:18:36;22.90;;;12.30;;
19727;SDS011;10015;52.530;13.390;2023-04-10T04:21:18;26.33;;;12.87;;
19727;SDS011;10015;52.530;13.390;2023-04-10T04:23:59;26.83;;;12.53;;
19727;SDS011;10015;52.530;13.390;2023-04-10T04:26:48;30.43;;;13.10;;
19727;SDS011;10015;52.530;13.390;2023-04-10T04:29:33;24.37;;;11.97;;
19727;SDS011;10015;52.530;13.390;2023-04-10T04:32:08;27.40;;;13.07;;
19727;SDS011;10015;52.530;13.390;2023-04-10T04:34:53;26.27;;;12.90;;
19727;SDS011;10015;52.530;13.390;2023-04-10T04:37:42;26.23;;;12.27;;
19727;SDS011;10015;52.530;13.390;2023-04-10T04:40:20;28.53;;;13.53;;
19727;SDS011;10015;52.530;13.390;2023-04-10T04:43:15;26.20;;;13.27;;
19727;SDS011;10015;52.530;13.390;2023-04-10T04:45:59;26.87;;;13.00;;
19727;SDS011;10015;52.530;13.390;2023-04-10T04:48:37;24.43;;;12.17;;
19727;SDS011;10015;52.530;13.390;2023-04-10T04:51:11;27.03;;;12.97;;
19727;SDS011;10015;52.530;13.390;2023-04-10T04:53:44;27.37;;;13.00;;
19727;SDS011;10015;52.530;13.390;2023-04-10T04:56:28;23.60;;;12.83;;
19727;SDS011;10015;52.530;13.390;2023-04-10T04:59:05;23.13;;;11.13;;
19727;SDS011;10015;52.530;13.390;2023-04-10T05:01:50;24.93;;;12.70;;
19727;SDS011;10015;52.530;13.390;2023-04-10T05:04:31;24.50;;;12.80;;
19727;SDS011;10015;52.530;13.390;2023-04-10T05:07:06;25.27;;;12.83;;
19727;SDS011;10015;52.530;13.390;2023-04-10T05:09:47;27.67;;;13.00;;
19727;SDS011;10015;52.530;13.390;2023-04-10T05:12:32;22.43;;;12.43;;
19727;SDS011;10015;52.530;13.390;2023-04-10T05:15:06;28.40;;;13.10;;
19727;SDS011;10015;52.530;13.390;2023-04-10T05:17:58;24.60;;;12.47;;
19727;SDS011;10015;52.530;13.390;2023-04-10T05:20:53;27.07;;;12.73;;
19727;SDS011;10015;52.530;13.390;2023-04-10T05:23:38;26.63;;;12.40;;
19727;SDS011;10015;52.530;13.390;2023-04-10T05:26:16;27.70;;;13.20;;
19727;SDS011;10015;52.530;13.390;2023-04-10T05:28:52;27.10;;;12.83;;
19727;SDS011;10015;52.530;13.390;2023-04-10T05:31:45;27.23;;;13.07;;
19727;SDS011;10015;52.530;13.390;2023-04-10T05:34:37;28.43;;;13.47;;
19727;SDS011;10015;52.530;13.390;2023-04-10T05:37:26;30.60;;;13.63;;
19727;SDS011;10015;52.530;13.390;2023-04-10T05:39:58;30.17;;;13.10;;
19727;SDS011;10015;52.530;13.390;2023-04-10T05:42:47;28.00;;;13.20;;
19727;SDS011;10015;52.530;13.390;2023-04-10T05:45:28;24.30;;;13.33;;
19727;SDS011;10015;52.530;13.390;2023-04-10T05:48:18;28.50;;;13.00;;
19727;SDS011;10015;52.530;13.390;2023-04-10T05:51:09;22.70;;;11.60;;
19727;SDS011;10015;52.530;13.390;2023-04-10T05:53:55;24.53;;;12.60;;
19727;SDS011;10015;52.530;13.390;2023-04-10T05:56:50;22.07;;;12.63;;
19727;SDS011;10015;52.530;13.390;2023-04-10T05:59:31;24.73;;;12.50;;
19727;SDS011;10015;52.530;13.390;2023-04-10T06:02:17;24.27;;;12.37;;
19727;SDS011;10015;52.530;13.390;2023-04-10T06:04:44;23.77;;;12.23;;
19727;SDS011;10015;52.530;13.390;2023-04-10T06:07:11;24.07;;;12.53;;
19727;SDS011;10015;52.530;13.390;2023-04-10T06:09:38;21.90;;;11.33;;
19727;SDS011;10015;52.530;13.390;2023-04-10T06:12:06;23.00;;;12.13;;
19727;SDS011;10015;52.530;13.390;2023-04-10T06:14:33;21.43;;;11.57;;
19727;SDS011;10015;52.530;13.390;2023-04-10T06:16:59;21.63;;;11.20;;
19727;SDS011;10015;52.530;13.390;2023-04-10T06:19:26;22.30;;;11.33;;
19727;SDS011;10015;52.530;13.390;2023-04-10T06:21:52;22.63;;;12.23;;
19727;SDS011;10015;52.530;13.390;2023-04-10T06:24:17;22.77;;;12.30;;
19727;SDS011;10015;52.530;13.390;2023-04-10T06:26:45;23.80;;;11.80;;
19727;SDS011;10015;52.530;13.390;2023-04-10T06:29:12;22.43;;;12.23;;
19727;SDS011;10015;52.530;13.390;2023-04-10T06:31:38;27.87;;;12.90;;
19727;SDS011;10015;52.530;13.390;2023-04-10T06:34:04;22.10;;;11.90;;
19727;SDS011;10015;52.530;13.390;2023-04-10T06:36:31;25.60;;;12.17;;
19727;SDS011;10015;52.530;13.390;2023-04-10T06:39:01;21.83;;;11.77;;
19727;SDS011;10015;52.530;13.390;2023-04-10T06:41:27;24.17;;;12.63;;
19727;SDS011;10015;52.530;13.390;2023-04-10T06:43:54;26.87;;;12.97;;
19727;SDS011;10015;52.530;13.390;2023-04-10T06:46:20;22.33;;;12.70;;
19727;SDS011;10015;52.530;13.390;2023-04-10T06:48:46;25.27;;;13.80;;
19727;SDS011;10015;52.530;13.390;2023-04-10T06:51:12;21.20;;;12.33;;
19727;SDS011;10015;52.530;13.390;2023-04-10T06:53:38;25.73;;;13.63;;
19727;SDS011;10015;52.530;13.390;2023-04-10T06:56:04;25.10;;;13.47;;
19727;SDS011;10015;52.530;13.390;2023-04-10T06:58:31;29.33;;;14.77;;
19727;SDS011;10015;52.530;13.390;2023-04-10T07:00:57;24.60;;;14.60;;
19727;SDS011;10015;52.530;13.390;2023-04-10T07:03:25;28.77;;;14.63;;
19727;SDS011;10015;52.530;13.390;2023-04-10T07:05:51;24.60;;;14.27;;
19727;SDS011;10015;52.530;13.390;2023-04-10T07:08:19;29.90;;;16.13;;
19727;SDS011;10015;52.530;13.390;2023-04-10T07:10:45;27.77;;;14.87;;
19727;SDS011;10015;52.530;13.390;2023-04-10T07:13:11;32.20;;;15.97;;
19727;SDS011;10015;52.530;13.390;2023-04-10T07:15:37;26.30;;;14.87;;
19727;SDS011;10015;52.530;13.390;2023-04-10T07:18:04;28.73;;;15.73;;
19727;SDS011;10015;52.530;13.390;2023-04-10T07:20:30;28.37;;;15.77;;
19727;SDS011;10015;52.530;13.390;2023-04-10T07:22:56;35.17;;;18.77;;
19727;SDS011;10015;52.530;13.390;2023-04-10T07:25:22;34.27;;;19.20;;
19727;SDS011;10015;52.530;13.390;2023-04-10T07:27:48;36.77;;;20.17;;
19727;SDS011;10015;52.530;13.390;2023-04-10T07:30:14;36.50;;;21.10;;
19727;SDS011;10015;52.530;13.390;2023-04-10T07:32:40;39.00;;;21.60;;
19727;SDS011;10015;52.530;13.390;2023-04-10T07:35:06;37.57;;;21.07;;
19727;SDS011;10015;52.530;13.390;2023-04-10T07:37:36;37.00;;;20.43;;
19727;SDS011;10015;52.530;13.390;2023-04-10T07:40:04;42.43;;;22.47;;
19727;SDS011;10015;52.530;13.390;2023-04-10T07:42:31;37.80;;;21.43;;
19727;SDS011;10015;52.530;13.390;2023-04-10T07:44:57;40.30;;;21.23;;
19727;SDS011;10015;52.530;13.390;2023-04-10T07:47:23;36.43;;;20.13;;
19727;SDS011;10015;52.530;13.390;2023-04-10T07:49:49;39.50;;;21.27;;
19727;SDS011;10015;52.530;13.390;2023-04-10T07:52:15;35.07;;;19.90;;
19727;SDS011;10015;52.530;13.390;2023-04-10T07:54:41;36.27;;;19.83;;
19727;SDS011;10015;52.530;13.390;2023-04-10T07:57:07;37.40;;;20.20;;
19727;SDS011;10015;52.530;13.390;2023-04-10T07:59:33;38.37;;;21.10;;
19727;SDS011;10015;52.530;13.390;2023-04-10T08:01:59;33.63;;;19.47;;
19727;SDS011;10015;52.530;13.390;2023-04-10T08:04:25;31.30;;;18.63;;
19727;SDS011;10015;52.530;13.390;2023-04-10T08:06:51;37.43;;;19.73;;
19727;SDS011;10015;52.530;13.390;2023-04-10T08:09:17;35.00;;;19.70;;
19727;SDS011;10015;52.530;13.390;2023-04-10T08:11:43;36.90;;;20.73;;
19727;SDS011;10015;52.530;13.390;2023-04-10T08:14:08;34.40;;;20.43;;
19727;SDS011;10015;52.530;13.390;2023-04-10T08:16:35;41.17;;;21.00;;
19727;SDS011;10015;52.530;13.390;2023-04-10T08:19:01;35.27;;;20.17;;
19727;SDS011;10015;52.530;13.390;2023-04-10T08:21:27;35.53;;;19.60;;
19727;SDS011;10015;52.530;13.390;2023-04-10T08:23:59;33.33;;;18.87;;
19727;SDS011;10015;52.530;13.390;2023-04-10T08:26:26;31.97;;;18.20;;
19727;SDS011;10015;52.530;13.390;2023-04-10T08:28:55;33.57;;;19.53;;
19727;SDS011;10015;52.530;13.390;2023-04-10T08:31:22;39.00;;;20.37;;
19727;SDS011;10015;52.530;13.390;2023-04-10T08:33:49;34.57;;;19.43;;
19727;SDS011;10015;52.530;13.390;2023-04-10T08:36:16;35.47;;;18.53;;
19727;SDS011;10015;52.530;13.390;2023-04-10T08:38:42;28.90;;;17.10;;
19727;SDS011;10015;52.530;13.390;2023-04-10T08:41:15;34.50;;;17.93;;
19727;SDS011;10015;52.530;13.390;2023-04-10T08:43:42;31.57;;;17.90;;
19727;SDS011;10015;52.530;13.390;2023-04-10T08:46:09;30.80;;;16.90;;
19727;SDS011;10015;52.530;13.390;2023-04-10T08:49:22;28.07;;;16.53;;
19727;SDS011;10015;52.530;13.390;2023-04-10T08:51:25;32.13;;;18.33;;
19727;SDS011;10015;52.530;13.390;2023-04-10T08:54:07;29.23;;;17.10;;
19727;SDS011;10015;52.530;13.390;2023-04-10T08:56:38;33.83;;;18.53;;
19727;SDS011;10015;52.530;13.390;2023-04-10T08:59:07;29.60;;;18.20;;
19727;SDS011;10015;52.530;13.390;2023-04-10T09:01:33;30.07;;;16.73;;
19727;SDS011;10015;52.530;13.390;2023-04-10T09:04:00;30.20;;;16.73;;
19727;SDS011;10015;52.530;13.390;2023-04-10T09:06:26;27.90;;;15.40;;
19727;SDS011;10015;52.530;13.390;2023-04-10T09:08:52;27.97;;;15.63;;
19727;SDS011;10015;52.530;13.390;2023-04-10T09:11:18;24.83;;;14.63;;
19727;SDS011;10015;52.530;13.390;2023-04-10T09:13:44;29.40;;;17.03;;
19727;SDS011;10015;52.530;13.390;2023-04-10T09:16:10;29.60;;;17.10;;
19727;SDS011;10015;52.530;13.390;2023-04-10T09:18:47;31.40;;;17.70;;
19727;SDS011;10015;52.530;13.390;2023-04-10T09:21:20;29.57;;;15.83;;
19727;SDS011;10015;52.530;13.390;2023-04-10T09:23:46;31.73;;;17.90;;
19727;SDS011;10015;52.530;13.390;2023-04-10T09:26:23;29.93;;;16.97;;
19727;SDS011;10015;52.530;13.390;2023-04-10T09:29:03;31.20;;;16.67;;
19727;SDS011;10015;52.530;13.390;2023-04-10T09:34:16;23.23;;;12.40;;
19727;SDS011;10015;52.530;13.390;2023-04-10T09:36:50;24.47;;;12.17;;
19727;SDS011;10015;52.530;13.390;2023-04-10T09:39:19;21.13;;;11.03;;
19727;SDS011;10015;52.530;13.390;2023-04-10T09:41:45;20.73;;;11.60;;
19727;SDS011;10015;52.530;13.390;2023-04-10T09:44:29;23.90;;;12.93;;
19727;SDS011;10015;52.530;13.390;2023-04-10T09:46:58;26.50;;;13.10;;
19727;SDS011;10015;52.530;13.390;2023-04-10T09:49:52;21.83;;;11.77;;
19727;SDS011;10015;52.530;13.390;2023-04-10T09:52:23;21.70;;;11.70;;
19727;SDS011;10015;52.530;13.390;2023-04-10T09:55:00;20.80;;;11.47;;
19727;SDS011;10015;52.530;13.390;2023-04-10T09:57:31;17.93;;;9.90;;
19727;SDS011;10015;52.530;13.390;2023-04-10T09:59:59;21.57;;;11.37;;
19727;SDS011;10015;52.530;13.390;2023-04-10T10:02:29;19.53;;;10.93;;
19727;SDS011;10015;52.530;13.390;2023-04-10T10:04:57;23.53;;;11.53;;
19727;SDS011;10015;52.530;13.390;2023-04-10T10:07:25;19.37;;;11.07;;
19727;SDS011;10015;52.530;13.390;2023-04-10T10:09:51;19.13;;;11.00;;
19727;SDS011;10015;52.530;13.390;2023-04-10T10:12:23;22.13;;;11.97;;
19727;SDS011;10015;52.530;13.390;2023-04-10T10:17:29;22.77;;;11.53;;
19727;SDS011;10015;52.530;13.390;2023-04-10T10:20:01;21.60;;;10.87;;
19727;SDS011;10015;52.530;13.390;2023-04-10T10:22:31;19.70;;;11.33;;
19727;SDS011;10015;52.530;13.390;2023-04-10T10:24:58;23.03;;;11.90;;
19727;SDS011;10015;52.530;13.390;2023-04-10T10:27:27;23.93;;;13.03;;
19727;SDS011;10015;52.530;13.390;2023-04-10T10:29:56;22.97;;;10.80;;
19727;SDS011;10015;52.530;13.390;2023-04-10T10:32:24;19.53;;;10.70;;
19727;SDS011;10015;52.530;13.390;2023-04-10T10:34:52;21.00;;;10.90;;
19727;SDS011;10015;52.530;13.390;2023-04-10T10:37:18;19.43;;;10.83;;
19727;SDS011;10015;52.530;13.390;2023-04-10T10:47:41;22.03;;;10.30;;
19727;SDS011;10015;52.530;13.390;2023-04-10T10:50:11;16.13;;;9.10;;
19727;SDS011;10015;52.530;13.390;2023-04-10T10:52:47;17.97;;;9.33;;
19727;SDS011;10015;52.530;13.390;2023-04-10T10:57:48;14.23;;;8.07;;
19727;SDS011;10015;52.530;13.390;2023-04-10T11:01:04;14.70;;;7.40;;
19727;SDS011;10015;52.530;13.390;2023-04-10T11:05:55;13.30;;;6.60;;
19727;SDS011;10015;52.530;13.390;2023-04-10T11:11:07;14.60;;;7.73;;
19727;SDS011;10015;52.530;13.390;2023-04-10T11:13:35;13.87;;;8.17;;
19727;SDS011;10015;52.530;13.390;2023-04-10T11:16:03;11.87;;;7.03;;
19727;SDS011;10015;52.530;13.390;2023-04-10T11:21:15;15.77;;;7.23;;
19727;SDS011;10015;52.530;13.390;2023-04-10T11:29:31;12.63;;;6.90;;
19727;SDS011;10015;52.530;13.390;2023-04-10T11:32:00;9.80;;;6.30;;
19727;SDS011;10015;52.530;13.390;2023-04-10T11:34:27;10.57;;;6.00;;
19727;SDS011;10015;52.530;13.390;2023-04-10T11:36:57;11.90;;;6.83;;
19727;SDS011;10015;52.530;13.390;2023-04-10T11:39:27;15.40;;;7.30;;
19727;SDS011;10015;52.530;13.390;2023-04-10T11:41:55;15.63;;;7.83;;
19727;SDS011;10015;52.530;13.390;2023-04-10T11:44:26;12.27;;;6.53;;
19727;SDS011;10015;52.530;13.390;2023-04-10T11:46:56;11.30;;;6.07;;
19727;SDS011;10015;52.530;13.390;2023-04-10T11:49:26;12.63;;;7.30;;
19727;SDS011;10015;52.530;13.390;2023-04-10T11:51:55;9.73;;;5.93;;
19727;SDS011;10015;52.530;13.390;2023-04-10T11:54:22;12.17;;;6.83;;
19727;SDS011;10015;52.530;13.390;2023-04-10T11:57:00;15.43;;;8.43;;
19727;SDS011;10015;52.530;13.390;2023-04-10T11:59:30;14.20;;;7.67;;
19727;SDS011;10015;52.530;13.390;2023-04-10T12:02:09;15.10;;;8.17;;
19727;SDS011;10015;52.530;13.390;2023-04-10T12:04:39;14.00;;;7.77;;
19727;SDS011;10015;52.530;13.390;2023-04-10T12:07:06;14.60;;;7.60;;
19727;SDS011;10015;52.530;13.390;2023-04-10T12:09:32;15.33;;;8.07;;
19727;SDS011;10015;52.530;13.390;2023-04-10T12:11:59;15.27;;;8.33;;
19727;SDS011;10015;52.530;13.390;2023-04-10T12:14:40;14.83;;;7.93;;
19727;SDS011;10015;52.530;13.390;2023-04-10T12:17:07;16.07;;;7.43;;
19727;SDS011;10015;52.530;13.390;2023-04-10T12:19:35;12.97;;;7.87;;
19727;SDS011;10015;52.530;13.390;2023-04-10T12:22:03;11.17;;;6.20;;
19727;SDS011;10015;52.530;13.390;2023-04-10T12:24:45;13.27;;;7.47;;
19727;SDS011;10015;52.530;13.390;2023-04-10T12:27:22;12.53;;;7.40;;
19727;SDS011;10015;52.530;13.390;2023-04-10T12:29:52;14.33;;;6.93;;
19727;SDS011;10015;52.530;13.390;2023-04-10T12:32:19;10.30;;;5.10;;
19727;SDS011;10015;52.530;13.390;2023-04-10T12:35:04;11.13;;;5.30;;
19727;SDS011;10015;52.530;13.390;2023-04-10T12:37:49;12.53;;;6.37;;
19727;SDS011;10015;52.530;13.390;2023-04-10T12:40:16;11.47;;;5.97;;
19727;SDS011;10015;52.530;13.390;2023-04-10T12:42:44;11.43;;;6.33;;
19727;SDS011;10015;52.530;13.390;2023-04-10T12:45:11;11.10;;;5.77;;
19727;SDS011;10015;52.530;13.390;2023-04-10T12:47:47;11.73;;;6.20;;
19727;SDS011;10015;52.530;13.390;2023-04-10T12:50:16;12.10;;;6.03;;
19727;SDS011;10015;52.530;13.390;2023-04-10T12:52:43;12.63;;;6.20;;
19727;SDS011;10015;52.530;13.390;2023-04-10T12:57:44;9.37;;;6.30;;
19727;SDS011;10015;52.530;13.390;2023-04-10T13:00:16;11.83;;;6.50;;
19727;SDS011;10015;52.530;13.390;2023-04-10T13:02:44;10.93;;;5.60;;
19727;SDS011;10015;52.530;13.390;2023-04-10T13:05:11;12.20;;;6.87;;
19727;SDS011;10015;52.530;13.390;2023-04-10T13:07:37;9.97;;;6.33;;
19727;SDS011;10015;52.530;13.390;2023-04-10T13:10:04;12.57;;;7.00;;
19727;SDS011;10015;52.530;13.390;2023-04-10T13:12:31;13.10;;;6.37;;
19727;SDS011;10015;52.530;13.390;2023-04-10T13:14:59;8.67;;;5.53;;
19727;SDS011;10015;52.530;13.390;2023-04-10T13:17:25;11.03;;;6.50;;
19727;SDS011;10015;52.530;13.390;2023-04-10T13:19:52;11.33;;;6.33;;
19727;SDS011;10015;52.530;13.390;2023-04-10T13:22:18;9.90;;;6.27;;
19727;SDS011;10015;52.530;13.390;2023-04-10T13:24:44;9.73;;;6.20;;
19727;SDS011;10015;52.530;13.390;2023-04-10T13:27:10;14.07;;;6.13;;
19727;SDS011;10015;52.530;13.390;2023-04-10T13:29:38;11.67;;;7.27;;
19727;SDS011;10015;52.530;13.390;2023-04-10T13:32:05;13.53;;;6.43;;
19727;SDS011;10015;52.530;13.390;2023-04-10T13:34:31;11.00;;;6.43;;
19727;SDS011;10015;52.530;13.390;2023-04-10T13:36:57;11.50;;;6.37;;
19727;SDS011;10015;52.530;13.390;2023-04-10T13:39:24;10.70;;;6.07;;
19727;SDS011;10015;52.530;13.390;2023-04-10T13:41:51;10.53;;;6.10;;
19727;SDS011;10015;52.530;13.390;2023-04-10T13:44:17;11.13;;;6.60;;
19727;SDS011;10015;52.530;13.390;2023-04-10T13:46:42;11.13;;;5.97;;
19727;SDS011;10015;52.530;13.390;2023-04-10T13:49:08;13.40;;;6.20;;
19727;SDS011;10015;52.530;13.390;2023-04-10T13:51:34;11.40;;;6.40;;
19727;SDS011;10015;52.530;13.390;2023-04-10T13:54:01;12.10;;;6.43;;
19727;SDS011;10015;52.530;13.390;2023-04-10T13:56:29;12.27;;;6.27;;
19727;SDS011;10015;52.530;13.390;2023-04-10T13:58:55;10.63;;;5.23;;
19727;SDS011;10015;52.530;13.390;2023-04-10T14:01:20;8.23;;;5.67;;
19727;SDS011;10015;52.530;13.390;2023-04-10T14:03:46;12.43;;;6.47;;
19727;SDS011;10015;52.530;13.390;2023-04-10T14:06:12;9.20;;;6.07;;
19727;SDS011;10015;52.530;13.390;2023-04-10T14:08:38;10.77;;;5.70;;
19727;SDS011;10015;52.530;13.390;2023-04-10T14:11:04;9.37;;;5.43;;
19727;SDS011;10015;52.530;13.390;2023-04-10T14:13:30;12.30;;;6.30;;
19727;SDS011;10015;52.530;13.390;2023-04-10T14:15:57;10.20;;;5.20;;
19727;SDS011;10015;52.530;13.390;2023-04-10T14:18:22;10.93;;;5.73;;
19727;SDS011;10015;52.530;13.390;2023-04-10T14:20:48;9.40;;;5.70;;
19727;SDS011;10015;52.530;13.390;2023-04-10T14:23:14;9.43;;;5.33;;
19727;SDS011;10015;52.530;13.390;2023-04-10T14:25:43;11.43;;;6.07;;
19727;SDS011;10015;52.530;13.390;2023-04-10T14:28:10;10.43;;;5.97;;
19727;SDS011;10015;52.530;13.390;2023-04-10T14:30:48;8.97;;;5.53;;
19727;SDS011;10015;52.530;13.390;2023-04-10T14:33:16;9.07;;;5.50;;
19727;SDS011;10015;52.530;13.390;2023-04-10T14:35:43;11.47;;;5.73;;
19727;SDS011;10015;52.530;13.390;2023-04-10T14:38:10;9.37;;;5.10;;
19727;SDS011;10015;52.530;13.390;2023-04-10T14:40:36;9.33;;;5.60;;
19727;SDS011;10015;52.530;13.390;2023-04-10T14:43:05;12.20;;;5.80;;
19727;SDS011;10015;52.530;13.390;2023-04-10T14:45:31;10.80;;;5.70;;
19727;SDS011;10015;52.530;13.390;2023-04-10T14:47:57;9.37;;;5.50;;
19727;SDS011;10015;52.530;13.390;2023-04-10T14:50:23;10.00;;;6.50;;
19727;SDS011;10015;52.530;13.390;2023-04-10T14:52:49;11.27;;;6.67;;
19727;SDS011;10015;52.530;13.390;2023-04-10T14:55:16;11.17;;;6.37;;
19727;SDS011;10015;52.530;13.390;2023-04-10T14:57:42;10.80;;;6.50;;
19727;SDS011;10015;52.530;13.390;2023-04-10T15:00:09;11.03;;;6.37;;
19727;SDS011;10015;52.530;13.390;2023-04-10T15:02:37;13.37;;;7.03;;
19727;SDS011;10015;52.530;13.390;2023-04-10T15:05:03;11.97;;;6.70;;
19727;SDS011;10015;52.530;13.390;2023-04-10T15:07:30;12.53;;;7.37;;
19727;SDS011;10015;52.530;13.390;2023-04-10T15:09:56;13.23;;;7.97;;
19727;SDS011;10015;52.530;13.390;2023-04-10T15:12:22;11.63;;;7.57;;
19727;SDS011;10015;52.530;13.390;2023-04-10T15:14:49;12.07;;;6.93;;
19727;SDS011;10015;52.530;13.390;2023-04-10T15:17:15;11.57;;;7.17;;
19727;SDS011;10015;52.530;13.390;2023-04-10T15:19:42;13.33;;;7.90;;